Terminal Aerodrome Forecast
Issued by NWS Shreveport, LA

Home | Current Version | Previous Version | Text Only | Print | Product List | Glossary On
Versions: 1 2 3 4 5 6 7 8 9 10 11 12 13 14
000
FTUS44 KSHV 012300
TAFTYR
TAF
KTYR 012320Z 0200/0224 14006KT P6SM FEW070
     FM020700 17008KT P6SM BKN025
      TEMPO 0209/0213 OVC015
     FM021400 19012KT P6SM VCSH SCT035
     FM021900 20014G22KT P6SM VCTS SCT035CB=

USA.gov is the U.S. government's official web portal to all federal, state and local government web resources and services.